Time;durP1;ratioP1;P1;durP2;ratioP2;P2;SDS_P1;SDS_P2;PMS_P1;PMS_P2;Temp;Humidity;BMP_temperature;BMP_pressure;BME280_temperature;BME280_humidity;BME280_pressure;Samples;Min_cycle;Max_cycle;Signal;HPM_P1;HPM_P2
2021/10/10 00:02:02;;;;;;;4.70;4.30;;;;;;;21.36;69.75;98452.00;5046472;28;20333;-65
2021/10/10 00:04:29;;;;;;;5.70;5.13;;;;;;;20.51;69.90;98296.47;5041488;28;20210;-65
2021/10/10 00:06:55;;;;;;;4.83;4.40;;;;;;;21.36;69.68;98444.31;5043277;28;20284;-65
2021/10/10 00:09:22;;;;;;;5.70;5.10;;;;;;;21.37;69.72;98443.50;5038658;28;20208;-65
2021/10/10 00:11:48;;;;;;;4.93;4.43;;;;;;;21.36;69.72;98441.78;5042810;28;20291;-65
2021/10/10 00:14:15;;;;;;;5.37;4.67;;;;;;;21.36;69.85;98447.78;5047475;28;20352;-64
2021/10/10 00:16:42;;;;;;;5.30;4.80;;;;;;;21.35;69.71;98446.00;5042198;28;20606;-65
2021/10/10 00:19:08;;;;;;;5.20;4.70;;;;;;;21.21;69.84;98424.06;5045398;28;20223;-65
2021/10/10 00:21:35;;;;;;;5.17;4.67;;;;;;;21.33;69.97;98445.06;5041177;28;20232;-65
2021/10/10 00:24:01;;;;;;;5.30;4.80;;;;;;;21.33;69.91;98442.53;5046763;28;20339;-65
2021/10/10 00:26:28;;;;;;;5.30;4.80;;;;;;;21.32;69.59;98440.75;5044367;28;20232;-65
2021/10/10 00:28:55;;;;;;;5.63;5.13;;;;;;;21.33;69.58;98442.53;5044100;28;20292;-65
2021/10/10 00:31:21;;;;;;;5.40;4.90;;;;;;;21.28;69.78;98432.88;5047349;28;20239;-65
2021/10/10 00:33:48;;;;;;;5.40;4.90;;;;;;;21.33;69.72;98433.97;5045234;28;20279;-65
2021/10/10 00:36:14;;;;;;;4.93;4.53;;;;;;;21.33;69.58;98433.97;5045948;28;20319;-64
2021/10/10 00:38:42;;;;;;;5.00;4.53;;;;;;;20.30;69.95;98256.31;5046102;28;20241;-65
2021/10/10 00:41:08;;;;;;;5.10;4.60;;;;;;;21.34;69.97;98433.16;5042758;28;20666;-64
2021/10/10 00:43:35;;;;;;;5.43;4.80;;;;;;;21.34;69.99;98435.69;5027617;28;20319;-64
2021/10/10 00:46:01;;;;;;;4.50;4.10;;;;;;;21.34;69.81;98433.16;5043701;28;20227;-65
2021/10/10 00:48:29;;;;;;;5.10;4.60;;;;;;;21.33;69.80;98431.41;5045441;28;20259;-64
2021/10/10 00:50:55;;;;;;;5.40;4.90;;;;;;;21.34;69.72;98428.91;5045327;28;20260;-65
2021/10/10 00:53:22;;;;;;;5.17;4.77;;;;;;;20.69;69.96;98311.75;5046237;28;20709;-65
2021/10/10 00:55:49;;;;;;;6.07;4.83;;;;;;;21.34;69.77;98425.47;5006956;28;20425;-64
2021/10/10 00:58:16;;;;;;;5.23;4.70;;;;;;;21.34;69.69;98423.81;5021875;28;20237;-65
2021/10/10 01:00:44;;;;;;;5.13;4.63;;;;;;;21.34;70.04;98426.34;5018127;28;20632;-64
2021/10/10 01:03:11;;;;;;;5.23;4.73;;;;;;;21.34;70.33;98428.91;5026111;28;20338;-64
2021/10/10 01:05:37;;;;;;;4.67;4.17;;;;;;;20.78;69.77;98332.63;5024883;28;20288;-64
2021/10/10 01:08:04;;;;;;;5.13;4.57;;;;;;;21.33;69.78;98426.28;5042502;28;20247;-64
2021/10/10 01:10:31;;;;;;;4.77;4.37;;;;;;;21.33;69.97;98422.06;5045486;28;20324;-64
2021/10/10 01:12:57;;;;;;;4.90;4.50;;;;;;;21.33;69.83;98423.75;5039737;28;20303;-64
2021/10/10 01:15:24;;;;;;;5.50;5.00;;;;;;;21.31;69.87;98426.22;5042417;28;20249;-64
2021/10/10 01:17:51;;;;;;;5.57;4.70;;;;;;;21.32;69.88;98427.09;5037550;28;20447;-64
2021/10/10 01:20:17;;;;;;;4.80;4.40;;;;;;;21.33;69.63;98418.63;5037885;28;20263;-64
2021/10/10 01:22:44;;;;;;;5.50;5.00;;;;;;;21.33;69.90;98414.41;5011367;28;20308;-64
2021/10/10 01:25:10;;;;;;;5.10;4.57;;;;;;;21.32;70.32;98412.63;5024889;28;20237;-64
2021/10/10 01:27:37;;;;;;;5.40;4.90;;;;;;;21.33;69.90;98408.41;5043404;28;20232;-65
2021/10/10 01:30:04;;;;;;;5.27;4.77;;;;;;;21.33;69.84;98410.94;5035638;28;20239;-64
2021/10/10 01:32:31;;;;;;;5.37;4.87;;;;;;;21.20;69.93;98386.53;5031869;28;20260;-65
2021/10/10 01:34:57;;;;;;;6.00;4.80;;;;;;;21.33;69.80;98410.94;5045654;28;20233;-64
2021/10/10 01:37:25;;;;;;;5.43;4.93;;;;;;;21.33;70.03;98409.28;5041489;28;20224;-64
2021/10/10 01:39:52;;;;;;;5.53;5.03;;;;;;;21.19;69.73;98384.78;5042861;28;20232;-64
2021/10/10 01:42:18;;;;;;;5.00;4.50;;;;;;;21.33;69.96;98411.84;5033565;28;20268;-64
2021/10/10 01:44:45;;;;;;;4.90;4.43;;;;;;;21.33;69.97;98404.16;5044803;28;20635;-64
2021/10/10 01:47:11;;;;;;;5.87;5.27;;;;;;;21.34;69.90;98407.56;5042678;28;20708;-64
2021/10/10 01:49:38;;;;;;;5.53;4.63;;;;;;;21.34;69.73;98405.91;5047113;28;20238;-64
2021/10/10 01:52:05;;;;;;;4.97;4.30;;;;;;;21.34;69.96;98407.56;5042294;28;20205;-64
2021/10/10 01:54:32;;;;;;;5.17;4.53;;;;;;;21.28;69.94;98394.53;5037713;28;20239;-64
2021/10/10 01:56:58;;;;;;;5.20;4.80;;;;;;;21.03;69.82;98354.25;5045301;28;20312;-64
2021/10/10 01:59:25;;;;;;;6.20;5.27;;;;;;;21.32;69.89;98399.84;5040159;28;20233;-64
2021/10/10 02:01:51;;;;;;;5.00;4.50;;;;;;;21.31;69.66;98403.22;5036787;28;20239;-64
2021/10/10 02:04:18;;;;;;;5.60;5.10;;;;;;;21.16;69.81;98373.53;5040749;28;20232;-65
2021/10/10 02:06:45;;;;;;;5.10;4.70;;;;;;;21.32;69.79;98391.31;5036173;28;20213;-64
2021/10/10 02:09:11;;;;;;;5.27;4.77;;;;;;;21.31;70.02;98398.09;5044515;28;20239;-64
2021/10/10 02:11:38;;;;;;;5.00;4.60;;;;;;;20.61;69.83;98274.78;5044185;28;20287;-64
2021/10/10 02:14:04;;;;;;;5.27;4.70;;;;;;;21.33;69.71;98396.50;5044464;28;20321;-64
2021/10/10 02:16:31;;;;;;;5.20;4.43;;;;;;;21.32;69.75;98389.59;5035564;28;20316;-64
2021/10/10 02:18:58;;;;;;;5.03;4.53;;;;;;;20.36;69.91;98223.41;5046575;28;20239;-64
2021/10/10 02:21:24;;;;;;;4.97;4.43;;;;;;;21.00;69.49;98330.22;5047081;28;20294;-64
2021/10/10 02:23:51;;;;;;;5.13;4.63;;;;;;;20.45;69.74;98245.13;5041742;28;20227;-64
2021/10/10 02:26:17;;;;;;;5.00;4.50;;;;;;;21.33;69.72;98385.38;5044475;28;20296;-64
2021/10/10 02:28:44;;;;;;;5.73;5.00;;;;;;;21.33;69.53;98382.81;5043249;28;20237;-64
2021/10/10 02:31:11;;;;;;;5.70;5.13;;;;;;;21.33;69.91;98385.38;5039878;28;20233;-64
2021/10/10 02:33:37;;;;;;;5.10;4.50;;;;;;;21.32;69.65;98381.94;5027303;28;20222;-66
2021/10/10 02:36:04;;;;;;;5.33;4.83;;;;;;;21.32;69.99;98379.38;5039304;28;20264;-64
2021/10/10 02:38:30;;;;;;;4.90;4.50;;;;;;;21.33;69.75;98380.28;5041561;28;20245;-64
2021/10/10 02:40:57;;;;;;;5.67;4.80;;;;;;;21.33;70.02;98383.72;5038522;28;20287;-64
2021/10/10 02:43:24;;;;;;;5.00;4.50;;;;;;;20.42;69.98;98227.13;5024894;28;20239;-64
2021/10/10 02:45:50;;;;;;;5.07;4.57;;;;;;;20.97;69.77;98314.75;5040851;28;20316;-64
2021/10/10 02:48:17;;;;;;;5.50;4.83;;;;;;;21.10;69.41;98337.47;5042685;28;20243;-64
2021/10/10 02:50:44;;;;;;;5.63;4.90;;;;;;;21.31;70.02;98379.31;5038430;28;20232;-64
2021/10/10 02:53:10;;;;;;;5.20;4.70;;;;;;;21.31;70.06;98379.31;5039630;28;20607;-64
2021/10/10 02:55:37;;;;;;;5.30;4.80;;;;;;;21.30;69.95;98380.13;5040546;28;20674;-64
2021/10/10 02:58:03;;;;;;;4.80;4.40;;;;;;;21.30;69.88;98377.56;5033458;28;20256;-64
2021/10/10 03:00:30;;;;;;;5.37;4.87;;;;;;;21.31;70.00;98369.09;5034116;28;20726;-64
2021/10/10 03:02:57;;;;;;;5.23;4.73;;;;;;;21.31;70.13;98374.19;5042448;28;20233;-64
2021/10/10 03:05:23;;;;;;;4.70;4.30;;;;;;;21.31;69.90;98376.75;5042888;28;20262;-64
2021/10/10 03:07:50;;;;;;;5.33;4.30;;;;;;;20.81;69.81;98286.75;5037165;28;20590;-64
2021/10/10 03:10:17;;;;;;;4.73;4.33;;;;;;;21.31;69.85;98375.09;5036435;28;20263;-64
2021/10/10 03:12:43;;;;;;;5.47;4.97;;;;;;;21.32;69.97;98375.97;5015357;28;20316;-65
2021/10/10 03:15:10;;;;;;;6.30;4.40;;;;;;;20.93;70.03;98318.81;5035119;28;20205;-64
2021/10/10 03:17:36;;;;;;;5.60;4.97;;;;;;;21.32;69.84;98370.84;5042361;28;20336;-64
2021/10/10 03:20:04;;;;;;;5.40;4.90;;;;;;;21.31;69.92;98372.53;5037971;28;20237;-64
2021/10/10 03:22:31;;;;;;;5.60;5.10;;;;;;;21.32;70.09;98371.72;5044282;28;20733;-64
2021/10/10 03:24:57;;;;;;;5.23;4.73;;;;;;;21.33;70.03;98372.59;5034692;28;20228;-64
2021/10/10 03:27:25;;;;;;;5.40;4.90;;;;;;;21.33;70.06;98368.38;5039010;28;20255;-64
2021/10/10 03:29:53;;;;;;;4.60;4.20;;;;;;;21.27;69.88;98354.44;5036234;28;20618;-65
2021/10/10 03:32:20;;;;;;;7.70;4.83;;;;;;;21.25;69.82;98344.16;5038907;28;20229;-65
2021/10/10 03:34:46;;;;;;;5.30;4.80;;;;;;;21.33;69.71;98360.69;5045538;28;20232;-64
2021/10/10 03:37:13;;;;;;;4.93;4.50;;;;;;;21.32;69.86;98364.03;5037959;28;20320;-65
2021/10/10 03:39:39;;;;;;;4.87;4.43;;;;;;;21.30;69.68;98363.13;5045892;28;20239;-65
2021/10/10 03:42:06;;;;;;;4.80;4.40;;;;;;;21.03;69.97;98315.91;5036273;28;20279;-65
2021/10/10 03:44:32;;;;;;;4.77;4.37;;;;;;;21.29;69.48;98361.34;5046019;28;20651;-64
2021/10/10 03:46:59;;;;;;;5.30;4.80;;;;;;;21.06;69.69;98315.16;5039188;28;20279;-65
2021/10/10 03:49:26;;;;;;;4.63;4.23;;;;;;;20.95;69.87;98298.47;5040687;28;20248;-64
2021/10/10 03:51:53;;;;;;;4.93;4.43;;;;;;;21.18;69.92;98339.59;5047427;28;20620;-65
2021/10/10 03:56:50;;;;;;;6.07;4.37;;;;;;;21.30;69.82;98360.56;5045728;28;20314;-65
2021/10/10 03:59:17;;;;;;;5.00;4.60;;;;;;;21.30;70.13;98365.69;5018999;28;20291;-65
2021/10/10 04:01:43;;;;;;;4.90;4.40;;;;;;;21.31;70.21;98356.31;5041028;28;20658;-65
2021/10/10 04:04:10;;;;;;;4.77;4.37;;;;;;;21.30;70.10;98358.00;5045199;28;20304;-65
2021/10/10 04:06:37;;;;;;;4.77;4.37;;;;;;;20.86;70.14;98281.03;5039950;28;20440;-64
2021/10/10 04:09:03;;;;;;;4.83;4.40;;;;;;;21.31;70.01;98363.97;5043127;28;20284;-65
2021/10/10 04:11:30;;;;;;;5.10;4.60;;;;;;;20.85;69.95;98276.75;5039036;28;20233;-65
2021/10/10 04:13:56;;;;;;;5.57;4.50;;;;;;;21.31;69.91;98356.31;5045992;28;20261;-65
2021/10/10 04:16:23;;;;;;;5.20;4.80;;;;;;;21.19;69.89;98337.88;5041853;28;20697;-64
2021/10/10 04:18:49;;;;;;;5.17;4.67;;;;;;;21.31;70.17;98353.75;5044102;28;20220;-65
2021/10/10 04:21:16;;;;;;;5.13;4.63;;;;;;;21.31;69.84;98353.75;5043257;28;20694;-64
2021/10/10 04:23:43;;;;;;;5.40;4.90;;;;;;;21.31;69.87;98354.63;5039444;28;20766;-64
2021/10/10 04:26:09;;;;;;;4.93;4.43;;;;;;;21.31;70.19;98356.31;5035654;28;20241;-65
2021/10/10 04:28:36;;;;;;;5.10;4.60;;;;;;;21.29;70.07;98348.56;5041123;28;20252;-64
2021/10/10 04:31:03;;;;;;;5.23;4.73;;;;;;;21.30;69.64;98357.13;5041678;28;20283;-65
2021/10/10 04:33:29;;;;;;;4.87;4.43;;;;;;;20.83;70.11;98275.78;5022569;28;20267;-65
2021/10/10 04:35:56;;;;;;;5.60;5.10;;;;;;;21.29;69.99;98352.84;5040393;28;20240;-65
2021/10/10 04:38:22;;;;;;;4.87;4.43;;;;;;;20.56;69.93;98226.06;5041050;28;20316;-64
2021/10/10 04:40:49;;;;;;;4.93;4.47;;;;;;;21.29;69.96;98365.63;5038526;28;20213;-65
2021/10/10 04:43:15;;;;;;;4.90;4.50;;;;;;;21.27;69.94;98357.88;5138911;22;20265;-65
2021/10/10 04:45:42;;;;;;;4.97;4.47;;;;;;;21.29;69.73;98365.63;5027187;28;20670;-65
2021/10/10 04:48:09;;;;;;;5.33;4.70;;;;;;;21.26;69.46;98361.22;5028096;28;20201;-65
2021/10/10 04:50:35;;;;;;;5.23;4.73;;;;;;;21.25;70.11;98351.81;5028560;28;20797;-66
2021/10/10 04:53:02;;;;;;;4.97;4.50;;;;;;;21.29;70.01;98358.78;5010334;28;20281;-65
2021/10/10 04:55:29;;;;;;;4.70;4.30;;;;;;;21.29;70.27;98348.56;5028329;28;20212;-67
2021/10/10 04:57:55;;;;;;;4.50;4.10;;;;;;;21.28;70.15;98348.50;5028830;28;20253;-65
2021/10/10 05:00:22;;;;;;;5.43;4.93;;;;;;;21.25;69.86;98350.94;5028229;28;20709;-66
2021/10/10 05:02:48;;;;;;;4.87;4.47;;;;;;;21.30;70.12;98349.44;5010669;28;20312;-66
2021/10/10 05:05:15;;;;;;;4.97;4.57;;;;;;;21.29;69.79;98351.13;5026258;28;20657;-65
2021/10/10 05:07:42;;;;;;;5.13;4.63;;;;;;;21.31;69.86;98356.31;5028110;28;20626;-65
2021/10/10 05:10:09;;;;;;;4.87;4.47;;;;;;;21.16;69.82;98325.84;5018183;28;20276;-65
2021/10/10 05:12:36;;;;;;;4.57;4.17;;;;;;;21.30;69.77;98352.00;5010137;28;20297;-63
2021/10/10 05:15:04;;;;;;;5.07;4.57;;;;;;;21.13;70.00;98333.38;5027917;28;20552;-63
2021/10/10 05:17:31;;;;;;;4.73;4.30;;;;;;;21.29;69.77;98358.78;4992255;28;20306;-66
2021/10/10 05:19:57;;;;;;;5.20;4.73;;;;;;;21.28;70.05;98358.72;5010254;28;20236;-66
2021/10/10 05:22:24;;;;;;;4.60;4.20;;;;;;;21.11;70.03;98329.03;5028110;28;20198;-65
2021/10/10 05:24:53;;;;;;;5.33;4.83;;;;;;;21.25;69.60;98356.94;5007867;28;20293;-65
2021/10/10 05:27:20;;;;;;;4.90;4.50;;;;;;;21.26;69.73;98361.22;5027927;28;20279;-65
2021/10/10 05:29:47;;;;;;;5.67;5.10;;;;;;;21.25;69.64;98356.03;5010117;28;20292;-65
2021/10/10 05:32:13;;;;;;;4.87;4.40;;;;;;;21.28;69.92;98367.28;5027615;28;20307;-65
2021/10/10 05:34:40;;;;;;;4.80;4.40;;;;;;;21.21;69.86;98352.50;5027328;28;20249;-65
2021/10/10 05:37:06;;;;;;;5.07;4.57;;;;;;;21.20;69.78;98358.41;4992162;28;20226;-66
2021/10/10 05:39:33;;;;;;;5.13;4.60;;;;;;;21.28;69.86;98369.84;5009168;28;20229;-65
2021/10/10 05:41:59;;;;;;;5.50;5.00;;;;;;;21.28;69.93;98366.41;5027334;28;20289;-65
2021/10/10 05:44:26;;;;;;;4.87;4.47;;;;;;;21.28;69.91;98367.28;5009923;28;20294;-65
2021/10/10 05:46:53;;;;;;;5.10;4.60;;;;;;;21.27;69.92;98367.22;5026885;28;20301;-65
2021/10/10 05:49:19;;;;;;;5.00;4.60;;;;;;;21.29;69.88;98373.28;5024353;28;20621;-66
2021/10/10 05:51:47;;;;;;;5.20;4.70;;;;;;;21.21;69.77;98362.72;5027120;28;20236;-65
2021/10/10 05:54:15;;;;;;;4.77;4.37;;;;;;;21.11;69.86;98341.81;5026080;28;20312;-65
2021/10/10 05:56:42;;;;;;;4.90;4.50;;;;;;;21.29;69.94;98376.69;4997102;28;22622;-67
2021/10/10 05:59:11;;;;;;;5.43;4.10;;;;;;;21.22;69.99;98364.47;5025664;28;20316;-65
2021/10/10 06:01:38;;;;;;;4.93;4.50;;;;;;;21.18;69.64;98354.03;5026782;28;20288;-67
2021/10/10 06:04:06;;;;;;;4.50;4.10;;;;;;;21.17;69.75;98363.38;5005848;28;20794;-65
2021/10/10 06:06:32;;;;;;;4.50;4.10;;;;;;;21.29;69.52;98386.91;4993565;28;20206;-66
2021/10/10 06:09:00;;;;;;;5.20;4.70;;;;;;;21.27;69.74;98391.13;5027604;28;20209;-65
2021/10/10 06:11:27;;;;;;;4.77;4.33;;;;;;;21.27;69.69;98393.66;5009357;28;20215;-66
2021/10/10 06:13:54;;;;;;;5.33;4.83;;;;;;;21.24;69.59;98390.97;5008277;28;20658;-65
2021/10/10 06:16:20;;;;;;;5.00;4.50;;;;;;;21.27;68.84;98396.22;5026204;28;20242;-65
2021/10/10 06:18:47;;;;;;;5.27;4.77;;;;;;;21.22;69.32;98384.03;5027174;28;20240;-66
2021/10/10 06:21:14;;;;;;;5.50;5.00;;;;;;;21.27;68.95;98395.34;5004054;28;20632;-63
2021/10/10 06:23:40;;;;;;;5.53;4.90;;;;;;;21.13;69.21;98371.72;5026919;28;20263;-66
2021/10/10 06:26:07;;;;;;;5.50;4.93;;;;;;;21.27;69.28;98396.22;5008833;28;20225;-65
2021/10/10 06:28:33;;;;;;;6.23;5.63;;;;;;;21.28;67.75;98402.19;5009312;28;20755;-66
2021/10/10 06:31:00;;;;;;;6.87;6.20;;;;;;;21.27;66.19;98398.78;5024271;28;20233;-65
2021/10/10 06:33:26;;;;;;;11.13;6.17;;;;;;;21.28;66.00;98402.19;5023798;28;20261;-65
2021/10/10 06:35:53;;;;;;;6.13;5.53;;;;;;;21.21;66.43;98398.50;5009176;28;20625;-65
2021/10/10 06:38:20;;;;;;;9.83;7.20;;;;;;;21.27;64.24;98411.56;5008703;28;20741;-65
2021/10/10 06:40:46;;;;;;;11.50;7.70;;;;;;;21.23;60.22;98403.69;5027001;28;20205;-66
2021/10/10 06:43:13;;;;;;;11.43;8.67;;;;;;;21.24;57.41;98408.00;4989708;28;20292;-63
2021/10/10 06:45:40;;;;;;;11.30;9.17;;;;;;;21.06;55.66;98379.06;5007764;28;20232;-65
2021/10/10 06:48:07;;;;;;;11.93;9.40;;;;;;;21.20;54.66;98413.78;5007825;28;20211;-67
2021/10/10 06:50:34;;;;;;;10.97;9.40;;;;;;;21.19;54.88;98409.47;5008630;28;20663;-64
2021/10/10 06:53:00;;;;;;;12.30;9.50;;;;;;;21.13;55.21;98398.97;5005876;28;20304;-65
2021/10/10 06:55:27;;;;;;;14.60;9.77;;;;;;;21.17;55.93;98406.84;5026459;28;20288;-64
2021/10/10 06:57:53;;;;;;;17.40;9.17;;;;;;;21.15;56.26;98399.91;5009128;28;20312;-66
2021/10/10 07:00:20;;;;;;;11.63;9.00;;;;;;;21.15;56.84;98407.59;5027994;28;20237;-66
2021/10/10 07:02:47;;;;;;;11.27;8.80;;;;;;;21.10;57.27;98393.72;5029485;28;20726;-65
2021/10/10 07:05:14;;;;;;;11.10;9.10;;;;;;;21.13;57.47;98404.06;5030372;28;20300;-65
2021/10/10 07:07:40;;;;;;;11.57;8.73;;;;;;;21.15;59.01;98408.47;5028953;28;20620;-66
2021/10/10 07:10:08;;;;;;;10.17;8.60;;;;;;;21.13;59.26;98396.41;5024171;28;20233;-66
2021/10/10 07:12:34;;;;;;;12.03;7.97;;;;;;;21.17;59.65;98413.66;5029263;28;20201;-66
2021/10/10 07:15:01;;;;;;;9.17;8.17;;;;;;;21.16;60.11;98402.53;5029053;28;20823;-66
2021/10/10 07:17:28;;;;;;;10.87;8.90;;;;;;;21.12;60.81;98405.78;5013000;28;20225;-65
2021/10/10 07:20:02;;;;;;;9.97;8.60;;;;;;;21.03;61.19;98384.03;5011098;28;20201;-66
2021/10/10 07:22:43;;;;;;;10.10;8.07;;;;;;;21.14;61.63;98399.03;5011534;28;20244;-65
2021/10/10 07:25:10;;;;;;;9.60;8.13;;;;;;;21.17;61.91;98404.28;5014656;28;20297;-65
2021/10/10 07:27:39;;;;;;;9.67;8.67;;;;;;;21.03;62.37;98378.91;5030402;28;20339;-65
2021/10/10 07:30:13;;;;;;;9.07;7.50;;;;;;;21.07;62.41;98393.56;4994978;28;20205;-67
2021/10/10 07:32:40;;;;;;;10.10;7.67;;;;;;;20.54;62.59;98304.25;5011180;28;20240;-65
2021/10/10 07:35:07;;;;;;;9.37;8.07;;;;;;;21.15;62.57;98408.47;5010520;28;20240;-64
2021/10/10 07:37:34;;;;;;;8.77;7.73;;;;;;;21.15;62.85;98412.69;5011545;28;20312;-67
2021/10/10 07:40:02;;;;;;;8.67;7.87;;;;;;;21.12;62.97;98405.78;5000867;28;20285;-65
2021/10/10 07:42:29;;;;;;;11.23;7.60;;;;;;;21.17;63.17;98419.63;4993171;28;20251;-65
2021/10/10 07:45:05;;;;;;;8.57;7.07;;;;;;;21.18;63.53;98417.94;5010536;28;20247;-66
2021/10/10 07:50:19;;;;;;;8.37;7.57;;;;;;;21.18;64.32;98423.94;5008535;28;20288;-65
2021/10/10 07:52:46;;;;;;;8.47;7.57;;;;;;;21.16;64.44;98419.53;5029018;28;20229;-64
2021/10/10 07:55:13;;;;;;;8.33;7.43;;;;;;;21.14;64.72;98409.25;5011525;28;20325;-67
2021/10/10 07:57:40;;;;;;;8.07;6.83;;;;;;;21.21;64.80;98420.63;4999414;28;20305;-66
2021/10/10 08:00:07;;;;;;;8.03;7.23;;;;;;;21.16;65.13;98417.88;5028866;28;20252;-65
2021/10/10 08:02:51;;;;;;;8.10;6.73;;;;;;;21.04;64.93;98399.44;4993422;28;20202;-65
2021/10/10 08:05:18;;;;;;;9.70;7.93;;;;;;;21.20;65.13;98421.44;5008258;28;20212;-68
2021/10/10 08:07:45;;;;;;;7.97;7.17;;;;;;;21.20;65.18;98421.44;5029211;28;20237;-64
2021/10/10 08:10:11;;;;;;;8.60;7.73;;;;;;;21.19;64.42;98428.25;5028998;28;20292;-65
2021/10/10 08:12:38;;;;;;;12.77;8.20;;;;;;;21.14;62.46;98410.97;5028448;28;20285;-66
2021/10/10 08:15:05;;;;;;;11.10;7.93;;;;;;;21.13;61.92;98415.19;4995064;28;20713;-66
2021/10/10 08:17:32;;;;;;;8.87;7.60;;;;;;;21.14;62.45;98413.50;5011414;28;20252;-65
2021/10/10 08:19:58;;;;;;;13.80;8.30;;;;;;;21.19;62.77;98419.69;5011554;28;20644;-67
2021/10/10 08:22:25;;;;;;;16.67;8.83;;;;;;;21.00;59.77;98395.00;5029255;28;20648;-65
2021/10/10 08:24:52;;;;;;;15.50;8.63;;;;;;;21.13;57.05;98422.84;5010495;28;20640;-65
2021/10/10 08:27:18;;;;;;;12.67;8.97;;;;;;;21.14;55.19;98423.75;5010876;28;20259;-65
2021/10/10 08:29:45;;;;;;;12.30;9.37;;;;;;;21.13;55.84;98421.97;5028868;28;20458;-65
2021/10/10 08:32:11;;;;;;;11.73;8.30;;;;;;;21.13;56.39;98421.97;5028166;28;20734;-65
2021/10/10 08:34:38;;;;;;;17.50;8.67;;;;;;;21.12;57.33;98431.34;5026548;28;20762;-65
2021/10/10 08:37:04;;;;;;;10.97;8.63;;;;;;;21.12;57.46;98422.78;5028344;28;20272;-65
2021/10/10 08:39:31;;;;;;;10.23;8.47;;;;;;;21.12;57.68;98422.78;5019005;28;20360;-65
2021/10/10 08:41:59;;;;;;;10.37;8.20;;;;;;;21.11;58.50;98424.44;5029027;28;20330;-66
2021/10/10 08:44:32;;;;;;;10.17;8.33;;;;;;;21.01;58.77;98412.06;4994843;28;20233;-64
2021/10/10 08:47:02;;;;;;;10.90;8.97;;;;;;;21.11;59.30;98439.78;5011986;28;20680;-65
2021/10/10 08:49:34;;;;;;;11.97;8.57;;;;;;;21.11;59.67;98434.69;5028592;28;20597;-65
2021/10/10 08:52:04;;;;;;;10.50;8.53;;;;;;;21.11;60.37;98444.91;4994988;28;20289;-65
2021/10/10 08:54:48;;;;;;;15.07;8.20;;;;;;;21.13;60.57;98437.31;5012002;28;20201;-65
2021/10/10 08:57:14;;;;;;;9.00;8.10;;;;;;;21.00;61.29;98419.66;5028566;28;20209;-66
2021/10/10 08:59:43;;;;;;;8.97;7.83;;;;;;;21.00;61.10;98414.56;5008601;28;20233;-65
2021/10/10 09:02:14;;;;;;;12.33;8.27;;;;;;;21.15;61.80;98430.59;4989878;28;20206;-65
2021/10/10 09:04:42;;;;;;;8.93;7.70;;;;;;;21.14;62.02;98434.81;5027811;28;20236;-65
2021/10/10 09:07:09;;;;;;;10.97;8.37;;;;;;;21.15;62.30;98428.91;5010589;28;20206;-65
2021/10/10 09:09:36;;;;;;;9.17;7.87;;;;;;;21.15;62.52;98417.81;5010943;28;20513;-65
2021/10/10 09:12:06;;;;;;;8.70;7.53;;;;;;;21.12;62.79;98416.00;5028341;28;20241;-66
2021/10/10 09:14:52;;;;;;;9.10;7.83;;;;;;;21.05;63.07;98402.88;4993984;28;20819;-65
2021/10/10 09:17:22;;;;;;;9.80;7.40;;;;;;;21.16;62.96;98417.88;5007551;28;20233;-65
2021/10/10 09:19:53;;;;;;;8.43;7.53;;;;;;;21.15;63.46;98416.13;5028260;28;20290;-64
2021/10/10 09:22:20;;;;;;;9.87;7.87;;;;;;;21.00;63.07;98394.13;5027437;28;20339;-64
2021/10/10 09:24:51;;;;;;;8.73;7.53;;;;;;;21.16;63.35;98417.00;5009308;28;20237;-64
2021/10/10 09:27:18;;;;;;;8.47;7.50;;;;;;;21.11;63.26;98408.25;5027554;28;20283;-65
2021/10/10 09:29:46;;;;;;;8.07;7.27;;;;;;;21.16;63.71;98425.53;4993563;28;20286;-66
2021/10/10 09:32:18;;;;;;;7.83;6.70;;;;;;;21.16;63.86;98417.88;5027815;28;20237;-65
2021/10/10 09:34:46;;;;;;;8.47;7.03;;;;;;;21.03;63.86;98399.38;5026022;28;20249;-65
2021/10/10 09:37:32;;;;;;;7.63;6.80;;;;;;;21.18;64.25;98415.38;4989420;28;20676;-65
2021/10/10 09:40:08;;;;;;;7.70;6.83;;;;;;;21.17;64.32;98417.06;5010126;28;20198;-65
2021/10/10 09:42:41;;;;;;;7.97;6.70;;;;;;;21.18;64.33;98417.94;5027080;28;20240;-66
2021/10/10 09:45:22;;;;;;;7.97;7.17;;;;;;;21.19;64.50;98412.00;5003751;28;20245;-65
2021/10/10 09:47:54;;;;;;;10.73;7.80;;;;;;;21.07;63.44;98391.00;5009443;28;20291;-67
2021/10/10 09:50:22;;;;;;;9.33;7.63;;;;;;;21.11;63.13;98395.47;4993540;28;20243;-65
2021/10/10 09:53:02;;;;;;;8.00;7.20;;;;;;;21.18;63.47;98411.16;5008537;28;20312;-65
2021/10/10 09:55:29;;;;;;;8.20;7.30;;;;;;;21.03;63.11;98386.59;5009904;28;20236;-66
2021/10/10 09:57:56;;;;;;;9.40;7.30;;;;;;;21.17;63.56;98406.84;5009202;28;20284;-65
2021/10/10 10:00:24;;;;;;;10.20;6.97;;;;;;;21.17;63.79;98413.66;5010059;28;20390;-66
2021/10/10 10:03:03;;;;;;;8.90;7.50;;;;;;;21.15;63.84;98413.59;5008345;28;20229;-64
2021/10/10 10:05:30;;;;;;;8.10;7.30;;;;;;;21.15;64.14;98408.47;5027324;28;20622;-64
2021/10/10 10:07:57;;;;;;;8.17;7.13;;;;;;;21.18;64.11;98407.72;5027767;28;20225;-67
2021/10/10 10:10:26;;;;;;;8.50;7.13;;;;;;;21.13;64.60;98397.28;5009976;28;20335;-64
2021/10/10 10:12:53;;;;;;;8.43;7.00;;;;;;;21.18;64.70;98406.06;5008650;28;20657;-65
2021/10/10 10:15:24;;;;;;;7.67;6.87;;;;;;;21.14;64.84;98404.13;5026925;28;20312;-65
2021/10/10 10:17:50;;;;;;;7.40;6.57;;;;;;;21.09;64.41;98387.75;4993074;28;20259;-63
2021/10/10 10:20:17;;;;;;;7.60;6.67;;;;;;;21.15;64.69;98395.69;4998910;28;20248;-65
2021/10/10 10:22:43;;;;;;;8.53;6.93;;;;;;;21.18;65.15;98397.50;4996440;28;20256;-65
2021/10/10 10:25:10;;;;;;;7.53;6.63;;;;;;;21.16;64.83;98393.97;5009242;28;20297;-65
2021/10/10 10:27:37;;;;;;;7.90;7.10;;;;;;;21.20;65.00;98401.00;4989385;28;20237;-64
2021/10/10 10:30:04;;;;;;;8.07;6.83;;;;;;;21.13;65.27;98397.28;5008781;28;20264;-64
2021/10/10 10:32:31;;;;;;;7.37;6.67;;;;;;;21.16;65.37;98399.97;4991953;28;20214;-65
2021/10/10 10:34:59;;;;;;;7.23;6.20;;;;;;;21.22;65.36;98407.03;4990819;28;20204;-63
2021/10/10 10:37:44;;;;;;;7.30;6.60;;;;;;;21.20;65.26;98404.41;5026933;28;20287;-65
2021/10/10 10:40:14;;;;;;;8.40;6.90;;;;;;;21.21;65.62;98403.63;5026798;28;20899;-65
2021/10/10 10:42:47;;;;;;;7.10;6.27;;;;;;;21.21;65.36;98406.19;5026642;28;20201;-64
2021/10/10 10:45:33;;;;;;;7.20;6.47;;;;;;;21.22;65.52;98404.47;5016772;23;20229;-65
2021/10/10 10:48:02;;;;;;;8.17;5.80;;;;;;;21.22;65.53;98401.91;5018272;28;20614;-65
2021/10/10 10:50:40;;;;;;;8.10;6.30;;;;;;;21.22;65.56;98397.69;5016607;28;20213;-65
2021/10/10 10:53:13;;;;;;;6.53;5.90;;;;;;;21.23;65.51;98396.03;5018637;28;20237;-64
2021/10/10 10:55:41;;;;;;;9.90;6.53;;;;;;;20.96;65.77;98356.47;5001416;28;20206;-65
2021/10/10 10:58:10;;;;;;;6.73;6.00;;;;;;;20.99;65.77;98362.56;5004027;28;20242;-65
2021/10/10 11:00:44;;;;;;;7.10;6.13;;;;;;;21.24;65.66;98402.88;4986923;28;20640;-64
2021/10/10 11:03:23;;;;;;;6.60;5.97;;;;;;;21.23;65.66;98386.66;4997066;28;20201;-65
2021/10/10 11:05:52;;;;;;;8.83;6.23;;;;;;;21.23;65.68;98390.91;5000989;28;20265;-65
2021/10/10 11:08:22;;;;;;;7.83;6.03;;;;;;;21.22;65.66;98392.59;5003033;28;20205;-65
2021/10/10 11:11:01;;;;;;;7.67;5.53;;;;;;;21.22;66.03;98390.03;4998755;28;20210;-65
2021/10/10 11:13:34;;;;;;;6.70;5.80;;;;;;;20.94;66.03;98343.59;4994532;28;20719;-65
2021/10/10 11:16:11;;;;;;;8.30;6.40;;;;;;;21.21;66.03;98395.97;4986350;28;20939;-65
2021/10/10 11:18:49;;;;;;;7.37;6.17;;;;;;;20.96;65.82;98346.25;5002649;28;20221;-65
2021/10/10 11:21:20;;;;;;;9.00;6.90;;;;;;;21.21;65.71;98393.41;4995244;28;20300;-65
2021/10/10 11:23:48;;;;;;;6.67;5.87;;;;;;;21.21;66.14;98398.50;4997179;28;20218;-65
2021/10/10 11:26:14;;;;;;;6.40;5.80;;;;;;;21.11;65.99;98367.38;4993905;28;20238;-65
2021/10/10 11:28:45;;;;;;;7.03;5.70;;;;;;;21.22;66.17;98381.47;4999284;28;20217;-66
2021/10/10 11:31:21;;;;;;;7.93;6.20;;;;;;;20.84;65.93;98315.00;5002860;28;20293;-65
2021/10/10 11:33:57;;;;;;;7.97;6.40;;;;;;;21.22;66.26;98373.81;4998564;28;20229;-66
2021/10/10 11:36:46;;;;;;;7.00;6.00;;;;;;;21.24;66.45;98377.31;4982803;28;20277;-65
2021/10/10 11:39:13;;;;;;;6.60;5.90;;;;;;;21.23;66.15;98368.75;5001456;28;20222;-65
2021/10/10 11:41:55;;;;;;;9.53;6.57;;;;;;;21.22;66.37;98367.00;5000828;28;20238;-65